CheckWX is a tool to help pilots better visualize weather data.  It is not intended as a substitute for an official pre-flight weather briefing.

12:22:24 UTC

KTOP METAR
Philip Billard Municipal Airport
Topeka, Kansas, USA
Current

29 mins ago

KTOP 181153Z AUTO 26005KT 10SM CLR M11/M14 A3038 RMK AO2 SLP301 T11061139 11078 21111 52033
Observed
Feb-18 @ 11:53 UTC
Wind
  • 260° at 5 KTS
Visibility
10 SM
Flight Rules
VFR
Cloud Levels
  • Clear skies
Temperature
-11°C / 12°F
Dewpoint
-14°C / 7°F
Humidity
79%
Altimeter
30.38" Hg
Pressure
1030.1 hPa
Previous

1 hour ago

KTOP 181053Z AUTO 27007KT 10SM CLR M10/M13 A3035 RMK AO2 SLP292 T11001133
Observed
Feb-18 @ 10:53 UTC
Wind
  • 270° at 7 KTS
Visibility
10 SM
Flight Rules
VFR
Cloud Levels
  • Clear skies
Temperature
-10°C / 14°F
Dewpoint
-13°C / 9°F
Humidity
79%
Altimeter
30.35" Hg
Pressure
1029.2 hPa
Previous

2 hours ago

KTOP 180953Z AUTO 29006KT 10SM CLR M10/M13 A3031 RMK AO2 SLP275 T11001128
Observed
Feb-18 @ 09:53 UTC
Wind
  • 290° at 6 KTS
Visibility
10 SM
Flight Rules
VFR
Cloud Levels
  • Clear skies
Temperature
-10°C / 14°F
Dewpoint
-13°C / 9°F
Humidity
79%
Altimeter
30.31" Hg
Pressure
1027.5 hPa